x

Halibut Bank (46146) Wave Buoy

9:00 - Sun 23rd Nov 2014 All times are PST. -8 hours from GMT.

  • Sig Wave height 1.0ft
  • Peak Period 4s
  • Wind
    4mph, 9mph gusts
  • Sea Temp 50°f
  • Ar Temp 48°f
  • Sea Pressure 1015.4mb
  • Halibut Bank
  • Halibut Bank

More Historic Weather Station data

Upgrade to MSW Pro to gain access to the past 30 days of data for over 8000 Wavebouys and Weather Stations around the globe.

Join Pro

Comparision Forecast

View Surf forecast
   
Dom 11/23 9:00 1ft 4s 4 9 mph 1015.4mb 50f 48f
8:00 1.3ft 4s 4 9 mph 1014.4mb 50f 48f
7:00 1.6ft 4s 7 9 mph 1014mb 50f 48f
6:00 2ft 4s 13 18 mph 1013.4mb 50f 48f
5:00 2ft 4s 18 22 mph 1013.4mb 49f 47f
4:00 2.5ft 4s 20 27 mph 1013.4mb 49f 48f
3:00 2ft 3s 22 27 mph 1014.3mb 49f 48f
2:00 2ft 3s 22 27 mph 1016mb 49f 47f
1:00 2ft 3s 20 25 mph 1016.8mb 49f 48f
12:00 1.6ft 3s 20 25 mph 1017mb 50f 49f
Sáb 11/22 11:00 1ft 2s 20 22 mph 1016.9mb 50f 48f
10:00 0.3ft 2s 16 18 mph 1016.7mb 49f 48f
9:00 0.7ft 4s 9 11 mph 1016.6mb 49f 49f
8:00 0.3ft 3s 7
mph
1015.8mb 47f 48f
7:00 0.7ft 3s  -  2 mph 1015.1mb 49f 48f
6:00 0.3ft 3s 2 4 mph 1014.3mb 49f 49f
5:00 0.3ft 4s 4
mph
1013.3mb 49f 49f
4:00 0.3ft 2s 9
mph
1012.7mb 50f 49f
3:00 0.7ft 2s 11
mph
1011.7mb 50f 49f
2:00 0.7ft 3s 13 16 mph 1010.6mb 50f 49f
1:00 0.3ft 2s 4 9 mph 1010mb 50f 49f
12:00 0.7ft 6s 4
mph
1009mb 50f 49f
11:00 0.3ft 4s 4 7 mph 1007.8mb 50f 48f
10:00 0.7ft 6s 4 7 mph 1006.7mb 50f 47f
9:00 0.3ft 4s 4 7 mph 1005.4mb 49f 48f
8:00 0.7ft 4s 4
mph
1004.5mb 49f 47f
7:00 0.7ft 4s 2
mph
1003.2mb 49f 47f
6:00 0.7ft 4s 4
mph
1002.5mb 49f 49f
5:00 0.7ft 3s 2
mph
1002mb 48f 48f
4:00 1ft 3s 2
mph
1001.2mb 48f 47f
3:00 1.3ft 4s 7
mph
1000.3mb 48f 48f
2:00 1.6ft 3s 9 13 mph 999.4mb 49f 49f
1:00 2ft 4s 16 18 mph 998.2mb 49f 49f
12:00 2.5ft 4s 18 25 mph 996.8mb 49f 48f
Sex 11/21 11:00 3.5ft 4s 18 25 mph 995.5mb 49f 49f
10:00 3.5ft 4s 27 34 mph 993.4mb 50f 49f
9:00 2ft 3s 31 38 mph 991.5mb 50f 49f
8:00 2.5ft 4s 13 16 mph 990.9mb 50f 49f
7:00 3ft 4s 18 20 mph 990.2mb 50f 49f
6:00 3ft 4s 20 25 mph 990.2mb 50f 50f
4:00 3.5ft 4s 25 29 mph 991.3mb 49f 49f
3:00 3.5ft 4s 27 31 mph 992.4mb 49f 49f
2:00 3.5ft 4s 27 29 mph 993.5mb 49f 49f
1:00 2.5ft 4s 22 29 mph 995.8mb 49f 49f
12:00 2.5ft 4s 25 27 mph 997.7mb 49f 49f
11:00 2.5ft 4s 20 22 mph 999.9mb 49f 49f
10:00 2.5ft 4s 22 27 mph 1001mb 49f 49f
9:00 3ft 4s 22 29 mph 1002mb 49f 49f
8:00 2.5ft 4s 25 29 mph 1003mb 49f 49f
7:00 2.5ft 4s 22 25 mph 1003.6mb 49f 49f
6:00 2ft 4s 22 27 mph 1004.7mb 49f 49f
5:00 2ft 3s 22 25 mph 1005.9mb 49f 49f
4:00 1.6ft 3s 20 25 mph 1007.2mb 49f 49f
3:00 1.3ft 3s 18 22 mph 1008.1mb 49f 49f
2:00 1.3ft 3s 18 20 mph 1009.2mb 50f 49f
1:00 1.3ft 3s 16 18 mph 1009.9mb 49f 50f
12:00 1.3ft 3s 13 18 mph 1010.4mb 49f 50f
Qui 11/20 11:00 1ft 3s 16 18 mph 1010.9mb 49f 50f
10:00 1ft 3s 18 20 mph 1011.4mb 49f 49f
9:00 1ft 3s 13 18 mph 1011.9mb 49f 49f
8:00 1.3ft 3s 13 18 mph 1012.1mb 49f 49f
7:00 1.6ft 3s 13 16 mph 1012mb 49f 49f
6:00 1.6ft 4s 18 20 mph 1011.9mb 49f 50f
5:00 2ft 4s 18 20 mph 1011.9mb 49f 50f
4:00 2ft 4s 18 20 mph 1012.1mb 49f 49f
3:00 2.5ft 4s 18 20 mph 1012mb 49f 49f
2:00 2.5ft 4s 18 20 mph 1012.1mb 49f 49f
1:00 3ft 4s 20 22 mph 1012.6mb 49f 49f
12:00 3ft 4s 20 25 mph 1012.9mb 49f 49f
11:00 3.5ft 4s 22 27 mph 1013mb 48f 49f
10:00 3ft 4s 22 29 mph 1012.8mb 48f 48f
9:00 3ft 4s 25 29 mph 1012.7mb 47f 48f
8:00 3.5ft 4s 20 25 mph 1012.8mb 47f 47f
7:00 3.5ft 4s 25 31 mph 1012.3mb 47f 47f
6:00 3.5ft 4s 29 34 mph 1011.6mb 47f 46f
5:00 3ft 4s 25 29 mph 1011.7mb 47f 46f
4:00 1.6ft 3s 22 27 mph 1011.2mb 47f 47f
3:00 0.7ft 2s 13 20 mph 1010.9mb 46f 47f
2:00 0.3ft 2s 9 11 mph 1010.2mb 46f 46f
1:00 0.3ft 2s 9 11 mph 1010mb 46f 46f
12:00 0.7ft 2s 9
mph
1009.8mb 46f 46f
Qua 11/19 11:00 0.3ft 2s 9
mph
1010.1mb 46f 46f
10:00 0.3ft 2s 9 13 mph 1010mb 46f 46f
9:00 0.3ft 6s 2
mph
1009.7mb 46f 46f
8:00 0.3ft 2s 4
mph
1009.9mb 45f 46f
7:00 0.7ft 4s 7
mph
1009.9mb 45f 46f